createdAt,value
2023-03-18T00:00:25.609Z,14.93
2023-03-18T00:02:53.717Z,20.83
2023-03-18T00:05:23.069Z,14.23
2023-03-18T00:07:51.006Z,10.33
2023-03-18T00:10:19.266Z,10.47
2023-03-18T00:12:47.215Z,13.67
2023-03-18T00:15:16.269Z,19.37
2023-03-18T00:17:44.461Z,17.00
2023-03-18T00:20:13.533Z,13.10
2023-03-18T00:22:43.307Z,10.03
2023-03-18T00:25:12.870Z,13.30
2023-03-18T00:27:41.145Z,15.10
2023-03-18T00:30:10.097Z,11.37
2023-03-18T00:32:38.835Z,17.20
2023-03-18T00:35:07.541Z,12.83
2023-03-18T00:37:36.604Z,17.67
2023-03-18T00:40:08.063Z,9.63
2023-03-18T00:42:39.203Z,16.90
2023-03-18T00:45:08.254Z,15.57
2023-03-18T00:47:38.494Z,21.93
2023-03-18T00:50:07.379Z,16.10
2023-03-18T00:52:35.282Z,19.50
2023-03-18T00:55:03.192Z,16.17
2023-03-18T00:57:32.472Z,20.43
2023-03-18T01:00:00.339Z,16.23
2023-03-18T01:02:29.017Z,18.90
2023-03-18T01:04:57.169Z,13.23
2023-03-18T01:07:25.155Z,15.73
2023-03-18T01:09:54.864Z,13.57
2023-03-18T01:12:23.267Z,12.90
2023-03-18T01:14:52.578Z,12.30
2023-03-18T01:17:20.792Z,14.27
2023-03-18T01:19:49.936Z,15.30
2023-03-18T01:22:17.838Z,14.83
2023-03-18T01:24:46.368Z,16.07
2023-03-18T01:27:14.284Z,12.00
2023-03-18T01:29:42.215Z,14.77
2023-03-18T01:32:11.780Z,9.47
2023-03-18T01:34:41.508Z,11.73
2023-03-18T01:37:09.654Z,13.00
2023-03-18T01:39:37.976Z,14.10
2023-03-18T01:42:06.436Z,15.23
2023-03-18T01:44:34.280Z,12.47
2023-03-18T01:47:02.179Z,14.97
2023-03-18T01:49:34.005Z,13.70
2023-03-18T01:52:03.897Z,12.77
2023-03-18T01:54:33.189Z,10.67
2023-03-18T01:57:01.522Z,12.57
2023-03-18T01:59:30.069Z,11.40
2023-03-18T02:02:01.331Z,12.23
2023-03-18T02:04:32.263Z,12.20
2023-03-18T02:07:00.185Z,12.10
2023-03-18T02:09:28.063Z,10.97
2023-03-18T02:11:55.984Z,13.37
2023-03-18T02:14:25.751Z,10.67
2023-03-18T02:16:55.777Z,13.07
2023-03-18T02:19:32.328Z,8.03
2023-03-18T02:22:05.496Z,17.60
2023-03-18T02:24:36.905Z,16.47
2023-03-18T02:27:08.172Z,17.23
2023-03-18T02:29:37.455Z,14.93
2023-03-18T02:32:06.235Z,19.13
2023-03-18T02:34:34.132Z,13.33
2023-03-18T02:37:02.029Z,21.87
2023-03-18T02:39:31.512Z,16.90
2023-03-18T02:41:59.467Z,11.87
2023-03-18T02:44:27.333Z,20.50
2023-03-18T02:46:57.270Z,13.70
2023-03-18T02:49:26.239Z,12.77
2023-03-18T02:51:54.150Z,14.13
2023-03-18T02:54:23.655Z,17.93
2023-03-18T02:56:52.010Z,16.23
2023-03-18T02:59:20.194Z,14.73
2023-03-18T03:01:49.612Z,11.40
2023-03-18T03:04:19.325Z,15.07
2023-03-18T03:06:47.275Z,15.13
2023-03-18T03:09:16.246Z,20.53
2023-03-18T03:11:44.608Z,14.40
2023-03-18T03:14:12.900Z,9.13
2023-03-18T03:16:40.751Z,12.87
2023-03-18T03:19:08.648Z,13.17
2023-03-18T03:21:37.965Z,13.07
2023-03-18T03:24:06.625Z,13.00
2023-03-18T03:26:35.095Z,17.30
2023-03-18T03:29:04.442Z,8.13
2023-03-18T03:31:32.823Z,12.90
2023-03-18T03:34:00.747Z,11.90
2023-03-18T03:36:29.036Z,8.13
2023-03-18T03:38:58.287Z,14.67
2023-03-18T03:41:26.196Z,14.47
2023-03-18T03:43:54.242Z,11.13
2023-03-18T03:46:22.148Z,14.27
2023-03-18T03:48:50.476Z,9.73
2023-03-18T03:51:18.349Z,10.73
2023-03-18T03:53:46.477Z,9.90
2023-03-18T03:56:15.768Z,9.60
2023-03-18T03:58:43.674Z,7.70
2023-03-18T04:01:11.725Z,10.83
2023-03-18T04:03:39.663Z,12.83
2023-03-18T04:06:08.266Z,10.70
2023-03-18T04:08:36.302Z,8.40
2023-03-18T04:11:04.592Z,9.83
2023-03-18T04:13:33.948Z,15.17
2023-03-18T04:16:01.923Z,11.50
2023-03-18T04:18:29.866Z,12.33
2023-03-18T04:20:57.708Z,9.93
2023-03-18T04:23:25.698Z,8.63
2023-03-18T04:25:53.591Z,9.00
2023-03-18T04:28:21.459Z,12.70
2023-03-18T04:30:50.736Z,7.87
2023-03-18T04:33:19.461Z,9.97
2023-03-18T04:35:48.673Z,9.57
2023-03-18T04:38:16.640Z,7.67
2023-03-18T04:40:45.609Z,5.37
2023-03-18T04:43:13.482Z,6.53
2023-03-18T04:45:41.402Z,8.90
2023-03-18T04:48:11.392Z,9.47
2023-03-18T04:50:39.325Z,10.90
2023-03-18T04:53:07.546Z,9.03
2023-03-18T04:55:35.469Z,11.23
2023-03-18T04:58:03.435Z,6.23
2023-03-18T05:00:32.120Z,8.27
2023-03-18T05:02:59.995Z,11.63
2023-03-18T05:05:29.352Z,6.07
2023-03-18T05:07:57.216Z,9.03
2023-03-18T05:10:25.085Z,10.23
2023-03-18T05:12:52.952Z,11.63
2023-03-18T05:15:20.836Z,9.20
2023-03-18T05:17:48.736Z,9.97
2023-03-18T05:20:16.590Z,11.37
2023-03-18T05:22:45.878Z,8.97
2023-03-18T05:25:19.653Z,7.40
2023-03-18T05:27:47.610Z,11.07
2023-03-18T05:30:16.038Z,5.70
2023-03-18T05:32:44.092Z,8.93
2023-03-18T05:35:12.111Z,9.27
2023-03-18T05:37:40.075Z,15.93
2023-03-18T05:40:12.010Z,8.23
2023-03-18T05:42:55.060Z,10.90
2023-03-18T05:45:23.919Z,8.63
2023-03-18T05:47:52.085Z,9.37
2023-03-18T05:50:28.807Z,14.83
2023-03-18T05:52:56.704Z,11.93
2023-03-18T05:55:26.924Z,7.37
2023-03-18T05:57:54.827Z,4.73
2023-03-18T06:00:24.723Z,8.33
2023-03-18T06:02:53.973Z,9.90
2023-03-18T06:05:22.194Z,6.23
2023-03-18T06:07:50.088Z,7.10
2023-03-18T06:10:18.156Z,11.53
2023-03-18T06:12:47.813Z,4.63
2023-03-18T06:15:15.723Z,10.47
2023-03-18T06:17:43.971Z,6.83
2023-03-18T06:20:14.221Z,13.93
2023-03-18T06:22:43.720Z,9.00
2023-03-18T06:25:11.832Z,5.90
2023-03-18T06:27:39.912Z,12.53
2023-03-18T06:30:10.849Z,7.47
2023-03-18T06:32:38.747Z,15.00
2023-03-18T06:35:07.643Z,10.07
2023-03-18T06:37:35.585Z,13.60
2023-03-18T06:40:03.942Z,7.77
2023-03-18T06:42:31.858Z,6.90
2023-03-18T06:45:00.089Z,8.33
2023-03-18T06:47:29.367Z,8.77
2023-03-18T06:49:57.542Z,13.70
2023-03-18T06:52:25.570Z,10.00
2023-03-18T06:54:53.646Z,17.90
2023-03-18T06:57:21.737Z,12.07
2023-03-18T06:59:49.884Z,15.27
2023-03-18T07:02:17.767Z,13.30
2023-03-18T07:04:47.117Z,8.60
2023-03-18T07:07:15.029Z,9.87
2023-03-18T07:09:43.674Z,12.27
2023-03-18T07:12:11.605Z,11.63
2023-03-18T07:14:39.840Z,8.27
2023-03-18T07:17:07.760Z,8.63
2023-03-18T07:19:35.864Z,7.93
2023-03-18T07:22:05.964Z,9.27
2023-03-18T07:24:34.591Z,11.30
2023-03-18T07:27:02.821Z,5.93
2023-03-18T07:29:30.701Z,9.07
2023-03-18T07:31:58.602Z,14.13
2023-03-18T07:34:27.546Z,11.33
2023-03-18T07:36:55.781Z,10.53
2023-03-18T07:39:25.294Z,11.60
2023-03-18T07:41:53.206Z,17.53
2023-03-18T07:44:21.443Z,16.00
2023-03-18T07:46:49.327Z,12.30
2023-03-18T07:49:17.310Z,22.50
2023-03-18T07:51:45.654Z,18.77
2023-03-18T07:54:14.292Z,18.20
2023-03-18T07:56:43.615Z,13.97
2023-03-18T07:59:12.449Z,15.03
2023-03-18T08:01:40.753Z,16.23
2023-03-18T08:04:08.679Z,13.07
2023-03-18T08:06:37.660Z,23.20
2023-03-18T08:09:05.925Z,9.77
2023-03-18T08:11:33.944Z,12.83
2023-03-18T08:14:03.412Z,11.50
2023-03-18T08:16:31.418Z,13.07
2023-03-18T08:18:59.748Z,12.27
2023-03-18T08:21:27.595Z,2.97
2023-03-18T08:23:56.002Z,8.43
2023-03-18T08:26:23.944Z,10.37
2023-03-18T08:28:51.880Z,9.03
2023-03-18T08:31:21.151Z,5.53
2023-03-18T08:33:49.487Z,8.00
2023-03-18T08:36:17.713Z,7.73
2023-03-18T08:38:45.592Z,8.63
2023-03-18T08:41:17.319Z,4.67
2023-03-18T08:43:47.260Z,6.67
2023-03-18T08:46:15.766Z,6.27
2023-03-18T08:48:45.322Z,4.10
2023-03-18T08:51:13.357Z,4.63
2023-03-18T08:53:41.267Z,4.43
2023-03-18T08:56:09.819Z,8.30
2023-03-18T08:58:38.223Z,9.57
2023-03-18T09:01:06.439Z,6.93
2023-03-18T09:03:36.221Z,5.83
2023-03-18T09:06:06.065Z,7.83
2023-03-18T09:08:34.106Z,2.70
2023-03-18T09:11:02.126Z,2.83
2023-03-18T09:13:29.967Z,4.80
2023-03-18T09:15:58.168Z,1.77
2023-03-18T09:18:26.135Z,7.47
2023-03-18T09:20:54.009Z,4.17
2023-03-18T09:23:23.455Z,5.00
2023-03-18T09:25:51.602Z,8.10
2023-03-18T09:28:19.486Z,5.30
2023-03-18T09:30:47.624Z,11.53
2023-03-18T09:33:16.207Z,11.23
2023-03-18T09:35:44.842Z,3.37
2023-03-18T09:38:14.025Z,1.10
2023-03-18T09:40:47.901Z,4.97
2023-03-18T09:43:25.993Z,2.90
2023-03-18T09:45:59.413Z,3.23
2023-03-18T09:48:39.151Z,5.47
2023-03-18T09:51:10.670Z,2.03
2023-03-18T09:53:42.498Z,4.27
2023-03-18T09:56:14.694Z,2.30
2023-03-18T09:58:51.831Z,3.77
2023-03-18T10:01:19.746Z,1.83
2023-03-18T10:03:49.883Z,3.03
2023-03-18T10:06:18.911Z,9.43
2023-03-18T10:08:51.194Z,7.60
2023-03-18T10:11:25.124Z,3.70
2023-03-18T10:14:02.807Z,5.47
2023-03-18T10:16:32.697Z,7.47
2023-03-18T10:19:01.275Z,5.70
2023-03-18T10:21:36.603Z,12.23
2023-03-18T10:24:10.473Z,10.67
2023-03-18T10:26:42.066Z,6.13
2023-03-18T10:29:23.477Z,9.00
2023-03-18T10:32:00.429Z,8.57
2023-03-18T10:34:31.323Z,5.70
2023-03-18T10:37:03.105Z,10.20
2023-03-18T10:39:31.133Z,6.13
2023-03-18T10:42:21.865Z,5.07
2023-03-18T10:44:49.792Z,8.93
2023-03-18T10:47:21.000Z,9.97
2023-03-18T10:49:51.647Z,7.17
2023-03-18T10:52:21.735Z,6.60
2023-03-18T10:54:52.712Z,6.37
2023-03-18T10:57:23.192Z,12.80
2023-03-18T10:59:51.439Z,14.37
2023-03-18T11:02:20.812Z,15.23
2023-03-18T11:04:49.768Z,11.60
2023-03-18T11:07:19.726Z,12.50
2023-03-18T11:09:47.632Z,8.00
2023-03-18T11:12:19.037Z,4.80
2023-03-18T11:14:49.804Z,12.10
2023-03-18T11:17:21.995Z,9.40
2023-03-18T11:19:50.924Z,10.27
2023-03-18T11:22:23.168Z,10.73
2023-03-18T11:25:06.134Z,7.70
2023-03-18T11:27:40.484Z,8.70
2023-03-18T11:30:40.585Z,8.20
2023-03-18T11:33:10.468Z,10.23
2023-03-18T11:35:40.781Z,13.13
2023-03-18T11:38:17.163Z,11.00
2023-03-18T11:40:46.012Z,9.67
2023-03-18T11:43:20.710Z,4.30
2023-03-18T11:45:52.843Z,12.37
2023-03-18T11:48:31.803Z,4.37
2023-03-18T11:51:31.517Z,6.27
2023-03-18T11:54:09.546Z,7.23
2023-03-18T11:56:40.548Z,10.30
2023-03-18T11:59:41.589Z,9.60
2023-03-18T12:02:40.262Z,5.57
2023-03-18T12:05:22.852Z,12.83
2023-03-18T12:08:01.715Z,7.50
2023-03-18T12:10:36.103Z,6.47
2023-03-18T12:13:16.951Z,10.23
2023-03-18T12:15:49.266Z,7.50
2023-03-18T12:18:24.610Z,9.87
2023-03-18T12:20:53.280Z,5.03
2023-03-18T12:23:35.472Z,12.80
2023-03-18T12:26:05.305Z,6.13
2023-03-18T12:28:43.228Z,6.50
2023-03-18T12:31:26.444Z,8.50
2023-03-18T12:33:57.258Z,9.47
2023-03-18T12:36:46.528Z,6.90
2023-03-18T12:39:33.972Z,12.13
2023-03-18T12:42:03.454Z,9.53
2023-03-18T12:45:02.008Z,10.57
2023-03-18T12:47:33.694Z,13.43
2023-03-18T12:50:06.325Z,12.57
2023-03-18T12:52:38.653Z,15.47
2023-03-18T12:55:09.416Z,19.53
2023-03-18T12:57:42.103Z,16.53
2023-03-18T13:00:20.581Z,8.93
2023-03-18T13:02:56.283Z,15.93
2023-03-18T13:05:44.280Z,10.93
2023-03-18T13:08:38.541Z,10.83
2023-03-18T13:11:12.109Z,22.80
2023-03-18T13:13:44.528Z,18.50
2023-03-18T13:16:12.419Z,22.33
2023-03-18T13:18:43.447Z,16.43
2023-03-18T13:21:15.381Z,20.07
2023-03-18T13:24:12.703Z,11.47
2023-03-18T13:26:52.351Z,18.87
2023-03-18T13:29:23.500Z,15.57
2023-03-18T13:31:53.587Z,15.23
2023-03-18T13:34:31.601Z,15.40
2023-03-18T13:37:13.492Z,16.17
2023-03-18T13:39:50.117Z,19.57
2023-03-18T13:42:21.647Z,18.07
2023-03-18T13:44:52.280Z,16.47
2023-03-18T13:47:21.548Z,18.70
2023-03-18T13:49:49.668Z,14.60
2023-03-18T13:52:27.865Z,11.93
2023-03-18T13:54:55.750Z,9.70
2023-03-18T13:57:49.074Z,6.23
2023-03-18T14:00:36.012Z,7.43
2023-03-18T14:03:07.801Z,3.90
2023-03-18T14:05:41.125Z,4.97
2023-03-18T14:08:39.594Z,3.23
2023-03-18T14:11:50.083Z,10.57
2023-03-18T14:14:42.535Z,4.43
2023-03-18T14:17:23.867Z,3.57
2023-03-18T14:19:54.607Z,5.47
2023-03-18T14:22:24.805Z,4.87
2023-03-18T14:25:21.748Z,7.70
2023-03-18T14:27:51.216Z,3.30
2023-03-18T14:30:44.280Z,5.33
2023-03-18T14:33:31.825Z,6.10
2023-03-18T14:36:06.739Z,3.77
2023-03-18T14:38:39.314Z,6.47
2023-03-18T14:41:15.438Z,5.73
2023-03-18T14:43:45.866Z,3.93
2023-03-18T14:46:17.752Z,3.07
2023-03-18T14:48:47.001Z,6.87
2023-03-18T14:51:16.408Z,2.83
2023-03-18T14:53:48.604Z,4.70
2023-03-18T14:56:19.675Z,5.23
2023-03-18T14:58:48.023Z,2.63
2023-03-18T15:01:17.877Z,6.87
2023-03-18T15:03:49.278Z,5.07
2023-03-18T15:06:19.506Z,8.17
2023-03-18T15:08:51.745Z,11.13
2023-03-18T15:11:21.828Z,6.27
2023-03-18T15:13:51.359Z,5.93
2023-03-18T15:16:26.407Z,8.53
2023-03-18T15:18:55.564Z,6.67
2023-03-18T15:21:24.808Z,3.03
2023-03-18T15:23:54.263Z,3.47
2023-03-18T15:26:24.498Z,5.13
2023-03-18T15:28:55.080Z,4.27
2023-03-18T15:31:26.449Z,4.63
2023-03-18T15:34:05.120Z,4.80
2023-03-18T15:36:41.570Z,4.73
2023-03-18T15:39:23.318Z,3.97
2023-03-18T15:41:58.027Z,4.03
2023-03-18T15:44:28.646Z,3.87
2023-03-18T15:47:18.121Z,3.17
2023-03-18T15:49:50.791Z,10.73
2023-03-18T15:52:18.887Z,6.63
2023-03-18T15:54:47.443Z,3.63
2023-03-18T15:57:25.283Z,5.50
2023-03-18T15:59:54.056Z,3.33
2023-03-18T16:02:25.729Z,5.77
2023-03-18T16:04:53.729Z,5.17
2023-03-18T16:07:23.312Z,7.33
2023-03-18T16:09:51.750Z,6.80
2023-03-18T16:12:22.906Z,4.67
2023-03-18T16:14:51.377Z,4.13
2023-03-18T16:17:21.816Z,2.67
2023-03-18T16:19:54.241Z,3.20
2023-03-18T16:22:22.339Z,3.00
2023-03-18T16:24:50.323Z,9.07
2023-03-18T16:27:29.353Z,3.07
2023-03-18T16:29:57.567Z,5.87
2023-03-18T16:32:25.789Z,2.73
2023-03-18T16:34:54.159Z,2.87
2023-03-18T16:37:23.967Z,2.50
2023-03-18T16:39:51.969Z,3.17
2023-03-18T16:42:24.274Z,1.07
2023-03-18T16:44:52.218Z,5.53
2023-03-18T16:47:22.668Z,8.20
2023-03-18T16:49:50.742Z,6.13
2023-03-18T16:52:19.454Z,4.67
2023-03-18T16:54:47.402Z,3.57
2023-03-18T16:57:17.175Z,9.50
2023-03-18T16:59:48.231Z,9.70
2023-03-18T17:02:27.155Z,12.23
2023-03-18T17:04:55.145Z,4.40
2023-03-18T17:07:23.194Z,6.03
2023-03-18T17:09:51.081Z,5.30
2023-03-18T17:12:18.924Z,3.70
2023-03-18T17:14:51.253Z,9.73
2023-03-18T17:17:22.524Z,10.67
2023-03-18T17:19:50.529Z,4.60
2023-03-18T17:22:21.168Z,4.37
2023-03-18T17:24:50.121Z,8.17
2023-03-18T17:27:19.331Z,9.97
2023-03-18T17:29:48.635Z,6.83
2023-03-18T17:32:22.421Z,3.33
2023-03-18T17:34:51.235Z,5.33
2023-03-18T17:37:19.142Z,5.03
2023-03-18T17:39:47.010Z,2.90
2023-03-18T17:42:28.086Z,6.23
2023-03-18T17:44:58.387Z,5.77
2023-03-18T17:47:26.320Z,7.43
2023-03-18T17:49:54.840Z,3.33
2023-03-18T17:52:27.457Z,2.40
2023-03-18T17:54:55.703Z,2.27
2023-03-18T17:57:24.622Z,2.77
2023-03-18T17:59:54.050Z,7.40
2023-03-18T18:02:23.345Z,7.67
2023-03-18T18:04:51.697Z,8.57
2023-03-18T18:07:20.681Z,5.67
2023-03-18T18:09:49.458Z,6.37
2023-03-18T18:12:18.167Z,7.27
2023-03-18T18:14:46.418Z,11.93
2023-03-18T18:17:15.228Z,20.07
2023-03-18T18:19:44.672Z,23.37
2023-03-18T18:22:16.869Z,14.50
2023-03-18T18:24:46.930Z,20.97
2023-03-18T18:27:15.113Z,14.80
2023-03-18T18:29:43.572Z,17.20
2023-03-18T18:32:11.473Z,21.80
2023-03-18T18:34:39.631Z,19.87
2023-03-18T18:37:09.526Z,24.40
2023-03-18T18:39:37.375Z,13.90
2023-03-18T18:42:05.633Z,19.03
2023-03-18T18:44:33.864Z,15.83
2023-03-18T18:47:01.824Z,10.47
2023-03-18T18:49:30.177Z,11.93
2023-03-18T18:52:00.297Z,7.70
2023-03-18T18:54:29.563Z,11.83
2023-03-18T18:56:57.539Z,12.67
2023-03-18T18:59:28.775Z,6.53
2023-03-18T19:01:56.957Z,7.83
2023-03-18T19:04:25.226Z,13.10
2023-03-18T19:06:54.092Z,5.37
2023-03-18T19:09:23.755Z,4.27
2023-03-18T19:11:53.364Z,4.20
2023-03-18T19:14:24.524Z,4.23
2023-03-18T19:16:52.635Z,2.83
2023-03-18T19:19:21.622Z,6.73
2023-03-18T19:21:51.074Z,4.33
2023-03-18T19:24:26.924Z,4.23
2023-03-18T19:26:56.564Z,2.60
2023-03-18T19:29:24.515Z,3.07
2023-03-18T19:31:52.766Z,1.40
2023-03-18T19:34:20.912Z,8.00
2023-03-18T19:36:49.472Z,5.53
2023-03-18T19:39:18.232Z,4.27
2023-03-18T19:41:47.122Z,3.20
2023-03-18T19:44:18.473Z,10.70
2023-03-18T19:46:46.663Z,1.67
2023-03-18T19:49:18.500Z,5.53
2023-03-18T19:51:46.372Z,2.93
2023-03-18T19:54:22.486Z,4.70
2023-03-18T19:56:51.139Z,5.60
2023-03-18T19:59:22.901Z,7.87
2023-03-18T20:01:51.035Z,3.93
2023-03-18T20:04:20.101Z,7.57
2023-03-18T20:06:48.523Z,2.17
2023-03-18T20:09:17.691Z,8.63
2023-03-18T20:11:45.657Z,6.23
2023-03-18T20:14:23.012Z,2.40
2023-03-18T20:16:51.051Z,6.03
2023-03-18T20:19:18.874Z,5.80
2023-03-18T20:21:46.788Z,7.07
2023-03-18T20:24:16.030Z,3.27
2023-03-18T20:26:44.161Z,6.03
2023-03-18T20:29:16.651Z,6.07
2023-03-18T20:31:45.976Z,6.47
2023-03-18T20:34:13.931Z,5.23
2023-03-18T20:36:41.968Z,5.27
2023-03-18T20:39:16.488Z,4.57
2023-03-18T20:41:44.778Z,4.87
2023-03-18T20:44:12.986Z,5.77
2023-03-18T20:46:42.896Z,6.73
2023-03-18T20:49:12.851Z,8.80
2023-03-18T20:51:41.357Z,4.70
2023-03-18T20:54:17.618Z,4.10
2023-03-18T20:56:45.747Z,2.63
2023-03-18T20:59:13.736Z,7.03
2023-03-18T21:01:41.825Z,4.40
2023-03-18T21:04:12.675Z,4.13
2023-03-18T21:06:41.307Z,5.70
2023-03-18T21:09:10.154Z,3.53
2023-03-18T21:11:38.663Z,5.37
2023-03-18T21:14:06.827Z,5.87
2023-03-18T21:16:37.716Z,9.20
2023-03-18T21:19:05.942Z,5.60
2023-03-18T21:21:38.426Z,4.33
2023-03-18T21:24:15.841Z,6.17
2023-03-18T21:26:57.786Z,3.20
2023-03-18T21:29:31.170Z,5.93
2023-03-18T21:32:00.007Z,14.33
2023-03-18T21:34:27.927Z,8.07
2023-03-18T21:36:57.359Z,15.33
2023-03-18T21:39:25.408Z,10.80
2023-03-18T21:41:53.308Z,6.70
2023-03-18T21:44:21.827Z,14.33
2023-03-18T21:46:49.696Z,8.87
2023-03-18T21:49:17.565Z,12.90
2023-03-18T21:51:45.713Z,7.87
2023-03-18T21:54:17.862Z,12.63
2023-03-18T21:56:45.886Z,12.30
2023-03-18T21:59:13.794Z,12.53
2023-03-18T22:01:41.754Z,17.80
2023-03-18T22:04:09.742Z,7.97
2023-03-18T22:06:37.593Z,11.73
2023-03-18T22:09:05.653Z,13.77
2023-03-18T22:11:34.890Z,9.33
2023-03-18T22:14:02.788Z,7.87
2023-03-18T22:16:30.691Z,11.50
2023-03-18T22:18:58.812Z,9.77
2023-03-18T22:21:27.444Z,10.20
2023-03-18T22:23:55.648Z,6.00
2023-03-18T22:26:23.812Z,5.40
2023-03-18T22:28:53.058Z,6.27
2023-03-18T22:31:22.014Z,8.97
2023-03-18T22:33:50.075Z,7.37
2023-03-18T22:36:18.369Z,9.03
2023-03-18T22:38:46.241Z,7.07
2023-03-18T22:41:16.884Z,8.17
2023-03-18T22:43:44.713Z,11.57
2023-03-18T22:46:14.009Z,7.57
2023-03-18T22:48:41.971Z,7.93
2023-03-18T22:51:11.350Z,10.87
2023-03-18T22:53:40.052Z,5.17
2023-03-18T22:56:09.746Z,7.43
2023-03-18T22:58:37.603Z,7.50
2023-03-18T23:01:05.671Z,7.60
2023-03-18T23:03:35.451Z,9.30
2023-03-18T23:06:03.813Z,10.17
2023-03-18T23:08:32.276Z,12.73
2023-03-18T23:11:01.612Z,11.17
2023-03-18T23:13:30.539Z,11.77
2023-03-18T23:15:59.189Z,11.33
2023-03-18T23:18:27.132Z,9.67
2023-03-18T23:20:56.381Z,10.03
2023-03-18T23:23:24.475Z,8.33
2023-03-18T23:25:52.522Z,11.13
2023-03-18T23:28:20.792Z,12.80
2023-03-18T23:30:49.704Z,14.23
2023-03-18T23:33:17.857Z,13.67
2023-03-18T23:35:45.988Z,8.43
2023-03-18T23:38:15.477Z,8.63
2023-03-18T23:40:43.320Z,12.00
2023-03-18T23:43:11.177Z,13.60
2023-03-18T23:45:39.629Z,10.17
2023-03-18T23:48:10.286Z,15.63
2023-03-18T23:50:38.189Z,9.40
2023-03-18T23:53:06.603Z,14.87
2023-03-18T23:55:36.095Z,8.37
2023-03-18T23:58:04.078Z,8.90
